Time;durP1;ratioP1;P1;durP2;ratioP2;P2;SDS_P1;SDS_P2;PMS_P1;PMS_P2;Temp;Humidity;BMP_temperature;BMP_pressure;BME280_temperature;BME280_humidity;BME280_pressure;Samples;Min_cycle;Max_cycle;Signal;HPM_P1;HPM_P2
2021/05/26 00:02:08;;;;;;;1.17;0.80;;;;;;;;;;4976935;28;20031;-49
2021/05/26 00:04:34;;;;;;;0.75;0.60;;;;;;;;;;4975686;28;20524;-48
2021/05/26 00:07:00;;;;;;;0.55;0.50;;;;;;;;;;4976551;28;20348;-48
2021/05/26 00:09:26;;;;;;;7.32;0.70;;;;;;;;;;4994141;28;20146;-49
2021/05/26 00:11:52;;;;;;;2.80;0.50;;;;;;;;;;4993513;28;20034;-49
2021/05/26 00:14:18;;;;;;;2.85;0.70;;;;;;;;;;4994250;28;20399;-49
2021/05/26 00:16:44;;;;;;;0.50;0.50;;;;;;;;;;4981180;28;20026;-49
2021/05/26 00:19:10;;;;;;;3.40;0.88;;;;;;;;;;4974872;28;20368;-49
2021/05/26 00:21:36;;;;;;;6.07;0.98;;;;;;;;;;4973373;28;20034;-49
2021/05/26 00:24:03;;;;;;;2.95;0.90;;;;;;;;;;4983146;28;20053;-47
2021/05/26 00:26:29;;;;;;;3.63;0.93;;;;;;;;;;4990596;28;20510;-47
2021/05/26 00:28:55;;;;;;;1.52;0.80;;;;;;;;;;4993609;28;20030;-47
2021/05/26 00:31:22;;;;;;;0.55;0.55;;;;;;;;;;4993320;28;20030;-47
2021/05/26 00:33:49;;;;;;;2.50;0.68;;;;;;;;;;4993605;28;20031;-46
2021/05/26 00:36:15;;;;;;;1.83;0.88;;;;;;;;;;4992343;28;20061;-47
2021/05/26 00:38:41;;;;;;;6.15;0.85;;;;;;;;;;4993811;28;20364;-47
2021/05/26 00:41:07;;;;;;;1.50;0.70;;;;;;;;;;4992521;28;20189;-47
2021/05/26 00:43:33;;;;;;;0.88;0.68;;;;;;;;;;4993535;28;20503;-47
2021/05/26 00:45:59;;;;;;;1.10;0.75;;;;;;;;;;4992596;28;20034;-47
2021/05/26 00:48:25;;;;;;;0.80;0.60;;;;;;;;;;4976601;28;20368;-47
2021/05/26 00:50:51;;;;;;;1.00;0.55;;;;;;;;;;4973678;28;20027;-47
2021/05/26 00:53:17;;;;;;;6.15;0.70;;;;;;;;;;4973883;28;20529;-47
2021/05/26 00:55:44;;;;;;;1.88;0.95;;;;;;;;;;4984675;28;20085;-47
2021/05/26 00:58:11;;;;;;;1.13;0.68;;;;;;;;;;4993283;28;20034;-47
2021/05/26 01:00:37;;;;;;;1.75;0.85;;;;;;;;;;4992505;28;20027;-46
2021/05/26 01:03:04;;;;;;;3.13;0.73;;;;;;;;;;4993411;28;20026;-47
2021/05/26 01:05:30;;;;;;;1.77;0.80;;;;;;;;;;4987923;28;20030;-47
2021/05/26 01:07:57;;;;;;;0.70;0.70;;;;;;;;;;4983175;28;20038;-46
2021/05/26 01:10:24;;;;;;;0.85;0.65;;;;;;;;;;4992401;28;20456;-47
2021/05/26 01:12:51;;;;;;;1.15;0.57;;;;;;;;;;4992937;28;20080;-47
2021/05/26 01:15:17;;;;;;;0.73;0.60;;;;;;;;;;4992590;28;20033;-47
2021/05/26 01:17:43;;;;;;;0.95;0.60;;;;;;;;;;4991907;28;20127;-47
2021/05/26 01:20:11;;;;;;;1.13;0.90;;;;;;;;;;4992254;28;20041;-47
2021/05/26 01:22:37;;;;;;;0.88;0.55;;;;;;;;;;4986330;28;20034;-47
2021/05/26 01:25:05;;;;;;;1.90;0.50;;;;;;;;;;4973586;28;20026;-47
2021/05/26 01:27:31;;;;;;;1.13;0.55;;;;;;;;;;4974065;28;20118;-47
2021/05/26 01:29:59;;;;;;;1.90;0.98;;;;;;;;;;4973266;28;20018;-47
2021/05/26 01:32:25;;;;;;;2.15;1.02;;;;;;;;;;4972740;28;20089;-47
2021/05/26 01:34:51;;;;;;;1.90;0.63;;;;;;;;;;4973634;28;20077;-47
2021/05/26 01:37:17;;;;;;;1.17;0.68;;;;;;;;;;4974085;28;20488;-47
2021/05/26 01:39:46;;;;;;;2.15;0.82;;;;;;;;;;4973058;28;20031;-47
2021/05/26 01:42:27;;;;;;;1.88;0.90;;;;;;;;;;4979797;28;20027;-47
2021/05/26 01:44:53;;;;;;;0.60;0.60;;;;;;;;;;4992528;28;20041;-47
2021/05/26 01:47:19;;;;;;;1.77;1.05;;;;;;;;;;4991979;28;20286;-47
2021/05/26 01:49:45;;;;;;;2.42;0.70;;;;;;;;;;4974086;28;20023;-47
2021/05/26 01:52:11;;;;;;;3.38;0.80;;;;;;;;;;4972233;28;20458;-47
2021/05/26 01:54:37;;;;;;;0.52;0.52;;;;;;;;;;4973447;28;20361;-47
2021/05/26 01:57:03;;;;;;;1.73;0.68;;;;;;;;;;4972872;28;20034;-46
2021/05/26 01:59:29;;;;;;;4.05;0.85;;;;;;;;;;4975743;28;20059;-46
2021/05/26 02:01:55;;;;;;;4.15;0.85;;;;;;;;;;4978083;28;20479;-47
2021/05/26 02:04:21;;;;;;;0.40;0.40;;;;;;;;;;4972585;28;20019;-46
2021/05/26 02:06:57;;;;;;;1.75;0.73;;;;;;;;;;4972727;28;20109;-47
2021/05/26 02:09:23;;;;;;;1.73;0.75;;;;;;;;;;4982574;28;20300;-47
2021/05/26 02:14:33;;;;;;;3.50;1.15;;;;;;;;;;4972859;28;20110;-46
2021/05/26 02:16:59;;;;;;;0.85;0.65;;;;;;;;;;4977996;28;20113;-46
2021/05/26 02:19:25;;;;;;;2.17;0.80;;;;;;;;;;4986737;28;20027;-47
2021/05/26 02:21:51;;;;;;;1.60;0.70;;;;;;;;;;4970899;28;20062;-47
2021/05/26 02:24:17;;;;;;;1.10;0.70;;;;;;;;;;4972408;28;20400;-46
2021/05/26 02:26:43;;;;;;;0.75;0.50;;;;;;;;;;4972593;28;20039;-46
2021/05/26 02:29:09;;;;;;;1.20;0.68;;;;;;;;;;4972611;28;20034;-47
2021/05/26 02:31:35;;;;;;;4.15;0.65;;;;;;;;;;4989252;28;20117;-47
2021/05/26 02:34:01;;;;;;;1.98;0.68;;;;;;;;;;4991482;28;20058;-47
2021/05/26 02:36:27;;;;;;;1.15;0.70;;;;;;;;;;4991326;28;20053;-47
2021/05/26 02:38:53;;;;;;;6.03;0.60;;;;;;;;;;4991689;28;20447;-46
2021/05/26 02:41:19;;;;;;;0.88;0.60;;;;;;;;;;4982518;28;20033;-47
2021/05/26 02:43:45;;;;;;;0.88;0.73;;;;;;;;;;4991113;28;20018;-46
2021/05/26 02:46:11;;;;;;;2.10;0.95;;;;;;;;;;4978124;28;20379;-47
2021/05/26 02:48:37;;;;;;;4.05;1.00;;;;;;;;;;4972222;28;20042;-47
2021/05/26 02:51:03;;;;;;;1.35;0.93;;;;;;;;;;4972031;28;20466;-47
2021/05/26 02:53:29;;;;;;;2.03;1.08;;;;;;;;;;4972104;28;20027;-47
2021/05/26 02:55:55;;;;;;;2.20;1.05;;;;;;;;;;4972053;28;20352;-47
2021/05/26 02:58:21;;;;;;;1.00;0.82;;;;;;;;;;4972046;28;20114;-47
2021/05/26 03:00:47;;;;;;;2.28;1.08;;;;;;;;;;4975750;28;20033;-46
2021/05/26 03:03:13;;;;;;;1.90;0.70;;;;;;;;;;4976768;28;20026;-46
2021/05/26 03:05:39;;;;;;;1.23;0.80;;;;;;;;;;4971323;28;20356;-47
2021/05/26 03:08:05;;;;;;;1.42;0.80;;;;;;;;;;4982863;28;20041;-47
2021/05/26 03:10:31;;;;;;;2.60;0.80;;;;;;;;;;4994496;28;20026;-46
2021/05/26 03:12:57;;;;;;;0.88;0.80;;;;;;;;;;4988375;28;20388;-47
2021/05/26 03:15:23;;;;;;;1.35;0.88;;;;;;;;;;4975874;28;20436;-46
2021/05/26 03:17:49;;;;;;;0.77;0.68;;;;;;;;;;4975754;28;20077;-47
2021/05/26 03:20:16;;;;;;;3.53;0.70;;;;;;;;;;4975021;28;20442;-46
2021/05/26 03:22:42;;;;;;;2.60;1.10;;;;;;;;;;4976383;28;20110;-46
2021/05/26 03:25:09;;;;;;;1.58;0.70;;;;;;;;;;4976126;28;20062;-47
2021/05/26 03:27:37;;;;;;;3.30;0.93;;;;;;;;;;4974935;28;20480;-47
2021/05/26 03:30:05;;;;;;;1.30;0.70;;;;;;;;;;4975280;28;20063;-47
2021/05/26 03:32:31;;;;;;;3.25;1.23;;;;;;;;;;4975140;28;20027;-47
2021/05/26 03:34:57;;;;;;;1.80;0.80;;;;;;;;;;4977031;28;20031;-47
2021/05/26 03:37:23;;;;;;;0.70;0.70;;;;;;;;;;4982701;28;20029;-46
2021/05/26 03:39:49;;;;;;;3.53;0.93;;;;;;;;;;4994342;28;20022;-47
2021/05/26 03:42:15;;;;;;;2.67;0.70;;;;;;;;;;4993472;28;20444;-47
2021/05/26 03:44:41;;;;;;;5.63;0.80;;;;;;;;;;4993005;28;20452;-47
2021/05/26 03:47:07;;;;;;;2.70;0.90;;;;;;;;;;4993981;28;20387;-47
2021/05/26 03:49:33;;;;;;;1.63;0.85;;;;;;;;;;4991158;28;20065;-47
2021/05/26 03:51:59;;;;;;;1.27;0.98;;;;;;;;;;4982725;28;20061;-47
2021/05/26 03:54:25;;;;;;;0.82;0.70;;;;;;;;;;4981668;28;20026;-47
2021/05/26 03:56:51;;;;;;;4.10;0.82;;;;;;;;;;4992333;28;20065;-47
2021/05/26 03:59:17;;;;;;;2.08;0.90;;;;;;;;;;4994542;28;20026;-47
2021/05/26 04:01:43;;;;;;;1.55;0.70;;;;;;;;;;4993597;28;20333;-47
2021/05/26 04:04:09;;;;;;;0.93;0.80;;;;;;;;;;4994477;28;20111;-46
2021/05/26 04:06:35;;;;;;;3.15;0.70;;;;;;;;;;4976273;28;20085;-47
2021/05/26 04:09:01;;;;;;;1.13;0.80;;;;;;;;;;4992788;28;20054;-47
2021/05/26 04:11:27;;;;;;;1.20;0.70;;;;;;;;;;4993501;28;20104;-47
2021/05/26 04:13:53;;;;;;;3.70;0.77;;;;;;;;;;4994119;28;20395;-46
2021/05/26 04:16:19;;;;;;;1.35;0.95;;;;;;;;;;4984490;28;20018;-47
2021/05/26 04:18:45;;;;;;;3.22;0.65;;;;;;;;;;4978663;28;20045;-47
2021/05/26 04:21:11;;;;;;;2.72;0.80;;;;;;;;;;4980832;28;20480;-47
2021/05/26 04:23:37;;;;;;;0.63;0.60;;;;;;;;;;4985071;28;20034;-47
2021/05/26 04:26:03;;;;;;;7.32;1.08;;;;;;;;;;4982259;28;20042;-46
2021/05/26 04:28:29;;;;;;;1.77;0.88;;;;;;;;;;4993976;28;20034;-46
2021/05/26 04:30:56;;;;;;;2.42;1.00;;;;;;;;;;4992530;28;20080;-47
2021/05/26 04:33:21;;;;;;;2.28;0.82;;;;;;;;;;4993518;28;20027;-46
2021/05/26 04:35:48;;;;;;;1.75;0.85;;;;;;;;;;4993912;28;20157;-47
2021/05/26 04:38:14;;;;;;;0.70;0.70;;;;;;;;;;4977799;28;20081;-47
2021/05/26 04:40:40;;;;;;;2.45;0.98;;;;;;;;;;4982491;28;20026;-47
2021/05/26 04:43:06;;;;;;;1.17;0.88;;;;;;;;;;4993677;28;20030;-47
2021/05/26 04:45:33;;;;;;;2.92;1.02;;;;;;;;;;4993209;28;20172;-46
2021/05/26 04:47:59;;;;;;;2.47;0.90;;;;;;;;;;4991924;28;20077;-47
2021/05/26 04:50:25;;;;;;;1.77;1.10;;;;;;;;;;4992565;28;20026;-47
2021/05/26 04:52:51;;;;;;;2.97;0.70;;;;;;;;;;4984652;28;20490;-46
2021/05/26 04:55:17;;;;;;;0.70;0.65;;;;;;;;;;4977933;28;20018;-47
2021/05/26 04:57:44;;;;;;;0.82;0.65;;;;;;;;;;4991731;28;21621;-46
2021/05/26 05:00:11;;;;;;;3.03;1.00;;;;;;;;;;4975456;28;20023;-47
2021/05/26 05:02:36;;;;;;;3.50;0.60;;;;;;;;;;4993387;28;20026;-46
2021/05/26 05:05:03;;;;;;;0.75;0.70;;;;;;;;;;4992884;28;20026;-46
2021/05/26 05:07:29;;;;;;;3.70;0.90;;;;;;;;;;4993182;28;20045;-47
2021/05/26 05:09:55;;;;;;;3.15;1.40;;;;;;;;;;4979120;28;20027;-46
2021/05/26 05:12:21;;;;;;;2.13;0.80;;;;;;;;;;4972517;28;20475;-46
2021/05/26 05:14:47;;;;;;;0.40;0.40;;;;;;;;;;4980485;28;20122;-46
2021/05/26 05:17:13;;;;;;;0.52;0.47;;;;;;;;;;4993343;28;20049;-46
2021/05/26 05:19:39;;;;;;;0.47;0.47;;;;;;;;;;4986538;28;20403;-46
2021/05/26 05:22:05;;;;;;;0.52;0.50;;;;;;;;;;4972484;28;20042;-46
2021/05/26 05:24:31;;;;;;;0.70;0.70;;;;;;;;;;4972945;28;20448;-46
2021/05/26 05:26:57;;;;;;;1.15;0.73;;;;;;;;;;4973175;28;20235;-46
2021/05/26 05:29:23;;;;;;;0.75;0.73;;;;;;;;;;4973114;28;20038;-46
2021/05/26 05:31:49;;;;;;;0.85;0.50;;;;;;;;;;4973556;28;20047;-45
2021/05/26 05:34:15;;;;;;;1.80;0.65;;;;;;;;;;4986819;28;20676;-46
2021/05/26 05:36:41;;;;;;;0.52;0.52;;;;;;;;;;4992351;28;20034;-46
2021/05/26 05:39:07;;;;;;;1.02;0.70;;;;;;;;;;4992900;28;20022;-46
2021/05/26 05:41:33;;;;;;;1.38;0.65;;;;;;;;;;4989537;28;20456;-46
2021/05/26 05:43:59;;;;;;;1.05;0.80;;;;;;;;;;4991700;28;20034;-46
2021/05/26 05:46:25;;;;;;;1.63;0.60;;;;;;;;;;4992365;28;20474;-46
2021/05/26 05:48:51;;;;;;;1.15;0.60;;;;;;;;;;4992209;28;20022;-46
2021/05/26 05:51:17;;;;;;;2.03;0.73;;;;;;;;;;4987882;28;20462;-46
2021/05/26 05:53:43;;;;;;;0.68;0.65;;;;;;;;;;4972925;28;20034;-46
2021/05/26 05:56:09;;;;;;;4.53;1.00;;;;;;;;;;4972985;28;20101;-46
2021/05/26 05:58:35;;;;;;;0.60;0.60;;;;;;;;;;4972412;28;20042;-46
2021/05/26 06:01:02;;;;;;;2.20;0.70;;;;;;;;;;4979320;28;20027;-46
2021/05/26 06:03:28;;;;;;;2.30;0.73;;;;;;;;;;4972529;28;20027;-46
2021/05/26 06:05:54;;;;;;;4.65;0.80;;;;;;;;;;4972508;28;20037;-46
2021/05/26 06:08:20;;;;;;;1.55;0.90;;;;;;;;;;4985035;28;20080;-46
2021/05/26 06:10:46;;;;;;;2.22;0.68;;;;;;;;;;4991535;28;20403;-46
2021/05/26 06:13:12;;;;;;;0.95;0.70;;;;;;;;;;4979870;28;20518;-46
2021/05/26 06:15:38;;;;;;;5.28;0.95;;;;;;;;;;4972280;28;20015;-46
2021/05/26 06:18:04;;;;;;;1.73;0.82;;;;;;;;;;4972736;28;20026;-46
2021/05/26 06:20:30;;;;;;;2.05;0.77;;;;;;;;;;4971572;28;20121;-46
2021/05/26 06:22:56;;;;;;;4.97;0.57;;;;;;;;;;4973410;28;20023;-46
2021/05/26 06:25:22;;;;;;;2.67;0.85;;;;;;;;;;4972151;28;20413;-46
2021/05/26 06:27:48;;;;;;;0.93;0.55;;;;;;;;;;4971076;28;20149;-47
2021/05/26 06:30:14;;;;;;;0.95;0.88;;;;;;;;;;4979102;28;20343;-46
2021/05/26 06:32:40;;;;;;;2.65;1.05;;;;;;;;;;4991987;28;20034;-46
2021/05/26 06:35:07;;;;;;;3.90;1.10;;;;;;;;;;4989696;28;20030;-48
2021/05/26 06:37:33;;;;;;;2.63;1.50;;;;;;;;;;4986023;28;20113;-48
2021/05/26 06:40:00;;;;;;;1.60;0.80;;;;;;;;;;4983940;28;20113;-48
2021/05/26 06:42:26;;;;;;;1.42;1.13;;;;;;;;;;4978002;28;20378;-48
2021/05/26 06:44:52;;;;;;;1.85;0.90;;;;;;;;;;4988463;28;20038;-48
2021/05/26 06:47:18;;;;;;;3.30;1.42;;;;;;;;;;4982551;28;20375;-48
2021/05/26 06:49:44;;;;;;;6.32;1.90;;;;;;;;;;4975854;28;20543;-48
2021/05/26 06:52:10;;;;;;;6.55;2.83;;;;;;;;;;4985429;28;20122;-48
2021/05/26 06:54:36;;;;;;;5.68;2.83;;;;;;;;;;4989421;28;20439;-48
2021/05/26 06:57:02;;;;;;;8.18;1.98;;;;;;;;;;4991094;28;20026;-48
2021/05/26 06:59:28;;;;;;;5.75;1.88;;;;;;;;;;4991014;28;20022;-48
2021/05/26 07:01:54;;;;;;;2.17;0.98;;;;;;;;;;4989073;28;20060;-48
2021/05/26 07:04:20;;;;;;;6.55;1.73;;;;;;;;;;4990587;28;20026;-48
2021/05/26 07:06:46;;;;;;;4.35;1.90;;;;;;;;;;4975205;28;20125;-51
2021/05/26 07:09:12;;;;;;;1.52;1.00;;;;;;;;;;4991353;28;20034;-47
2021/05/26 07:11:38;;;;;;;1.85;1.10;;;;;;;;;;4990555;28;20407;-48
2021/05/26 07:14:04;;;;;;;2.45;1.20;;;;;;;;;;4990869;28;20065;-48
2021/05/26 07:16:30;;;;;;;1.90;1.05;;;;;;;;;;4980345;28;20023;-48
2021/05/26 07:19:00;;;;;;;3.22;1.75;;;;;;;;;;4970942;28;20393;-48
2021/05/26 07:21:26;;;;;;;6.28;1.83;;;;;;;;;;4970900;28;20110;-47
2021/05/26 07:23:54;;;;;;;2.60;1.13;;;;;;;;;;4974786;28;20034;-48
2021/05/26 07:26:21;;;;;;;1.67;1.23;;;;;;;;;;4972056;28;20365;-47
2021/05/26 07:28:47;;;;;;;2.85;1.00;;;;;;;;;;4972224;28;20034;-48
2021/05/26 07:31:13;;;;;;;2.55;1.42;;;;;;;;;;4970641;28;20038;-47
2021/05/26 07:33:39;;;;;;;1.20;0.90;;;;;;;;;;4971233;28;20035;-47
2021/05/26 07:36:05;;;;;;;2.08;1.13;;;;;;;;;;4971216;28;20126;-47
2021/05/26 07:38:31;;;;;;;5.65;1.63;;;;;;;;;;4972658;28;20019;-47
2021/05/26 07:40:59;;;;;;;2.67;1.70;;;;;;;;;;4970578;28;20132;-48
2021/05/26 07:43:25;;;;;;;4.93;1.65;;;;;;;;;;4972089;28;20046;-45
2021/05/26 07:45:51;;;;;;;4.03;1.60;;;;;;;;;;4970667;28;20027;-45
2021/05/26 07:48:17;;;;;;;3.80;1.63;;;;;;;;;;4972044;28;20085;-45
2021/05/26 07:50:44;;;;;;;3.38;1.27;;;;;;;;;;4973265;28;20046;-45
2021/05/26 07:53:10;;;;;;;1.65;1.30;;;;;;;;;;4990606;28;20478;-45
2021/05/26 07:55:36;;;;;;;4.35;1.05;;;;;;;;;;4992634;28;20445;-45
2021/05/26 07:58:02;;;;;;;5.38;1.52;;;;;;;;;;4991139;28;20053;-45
2021/05/26 08:00:28;;;;;;;2.03;1.42;;;;;;;;;;4978143;28;20227;-45
2021/05/26 08:02:55;;;;;;;5.95;2.15;;;;;;;;;;4993488;28;20057;-45
2021/05/26 08:05:23;;;;;;;3.20;1.63;;;;;;;;;;4993560;28;20030;-45
2021/05/26 08:07:49;;;;;;;4.38;2.63;;;;;;;;;;4987886;28;20049;-45
2021/05/26 08:10:15;;;;;;;5.95;1.92;;;;;;;;;;4977772;28;20085;-45
2021/05/26 08:12:41;;;;;;;3.97;1.60;;;;;;;;;;4979327;28;20133;-45
2021/05/26 08:15:08;;;;;;;2.92;1.63;;;;;;;;;;4990439;28;20109;-45
2021/05/26 08:17:34;;;;;;;2.35;1.45;;;;;;;;;;4993498;28;20341;-45
2021/05/26 08:20:01;;;;;;;2.20;1.38;;;;;;;;;;4992472;28;20033;-45
2021/05/26 08:22:27;;;;;;;1.98;1.17;;;;;;;;;;4992896;28;20355;-45
2021/05/26 08:24:53;;;;;;;5.22;1.58;;;;;;;;;;4993725;28;20109;-45
2021/05/26 08:27:19;;;;;;;1.90;1.27;;;;;;;;;;4993651;28;20125;-45
2021/05/26 08:29:45;;;;;;;4.68;1.30;;;;;;;;;;4992481;28;20110;-45
2021/05/26 08:32:11;;;;;;;2.28;1.10;;;;;;;;;;4992909;28;20113;-45
2021/05/26 08:34:37;;;;;;;1.17;0.80;;;;;;;;;;4988458;28;20463;-45
2021/05/26 08:37:03;;;;;;;2.78;1.00;;;;;;;;;;4986173;28;20113;-45
2021/05/26 08:39:34;;;;;;;5.38;1.23;;;;;;;;;;4983723;28;20026;-45
2021/05/26 08:42:00;;;;;;;;;;;;;;;;;;4984016;28;20100;-45
2021/05/26 08:44:26;;;;;;;4.30;1.23;;;;;;;;;;4982702;28;20311;-45
2021/05/26 08:46:52;;;;;;;2.58;1.30;;;;;;;;;;4977435;28;20097;-45
2021/05/26 08:49:20;;;;;;;3.15;1.35;;;;;;;;;;4973869;28;20208;-45
2021/05/26 08:51:47;;;;;;;1.52;0.93;;;;;;;;;;4978887;28;20027;-46
2021/05/26 08:54:13;;;;;;;3.22;1.42;;;;;;;;;;4973745;28;20094;-46
2021/05/26 08:56:39;;;;;;;2.13;1.67;;;;;;;;;;4973784;28;20050;-46
2021/05/26 08:59:05;;;;;;;1.70;1.20;;;;;;;;;;4983001;28;20096;-46
2021/05/26 09:01:31;;;;;;;2.80;1.50;;;;;;;;;;4990651;28;20451;-45
2021/05/26 09:04:17;;;;;;;5.55;1.58;;;;;;;;;;4993177;28;20050;-46
2021/05/26 09:06:53;;;;;;;2.70;1.00;;;;;;;;;;4987537;28;20086;-48
2021/05/26 09:09:19;;;;;;;2.03;1.15;;;;;;;;;;4986405;28;20030;-46
2021/05/26 09:11:45;;;;;;;6.45;1.63;;;;;;;;;;4991315;28;20014;-46
2021/05/26 09:14:12;;;;;;;2.05;1.23;;;;;;;;;;4974655;28;20364;-47
2021/05/26 09:16:38;;;;;;;4.53;1.75;;;;;;;;;;4972560;28;20041;-46
2021/05/26 09:19:05;;;;;;;4.05;1.27;;;;;;;;;;4972475;28;20023;-46
2021/05/26 09:21:45;;;;;;;3.28;1.17;;;;;;;;;;4971877;28;20023;-46
2021/05/26 09:24:20;;;;;;;4.40;1.20;;;;;;;;;;4974579;28;20416;-48
2021/05/26 09:27:07;;;;;;;5.53;0.95;;;;;;;;;;4992466;28;20177;-48
2021/05/26 09:29:44;;;;;;;1.33;0.93;;;;;;;;;;4992530;28;20114;-45
2021/05/26 09:32:10;;;;;;;1.83;1.08;;;;;;;;;;4989924;28;20034;-46
2021/05/26 09:34:36;;;;;;;3.13;1.10;;;;;;;;;;4990492;28;20621;-46
2021/05/26 09:37:06;;;;;;;3.22;1.30;;;;;;;;;;4986672;28;20049;-46
2021/05/26 09:39:44;;;;;;;3.40;1.10;;;;;;;;;;4973603;28;20077;-45
2021/05/26 09:42:22;;;;;;;5.90;0.93;;;;;;;;;;4972414;28;20392;-46
2021/05/26 09:45:08;;;;;;;1.23;0.80;;;;;;;;;;4988875;28;20330;-50
2021/05/26 09:47:38;;;;;;;2.25;1.02;;;;;;;;;;4972904;28;20122;-49
2021/05/26 09:50:16;;;;;;;3.05;1.08;;;;;;;;;;4972128;28;20372;-45
2021/05/26 09:53:01;;;;;;;2.92;1.23;;;;;;;;;;4991601;28;20034;-45
2021/05/26 09:55:31;;;;;;;1.73;1.15;;;;;;;;;;4990804;28;20050;-46
2021/05/26 09:57:58;;;;;;;2.25;1.10;;;;;;;;;;4991449;28;20117;-46
2021/05/26 10:00:24;;;;;;;6.22;0.93;;;;;;;;;;4989819;28;20467;-45
2021/05/26 10:02:51;;;;;;;4.90;1.20;;;;;;;;;;4980134;28;20476;-46
2021/05/26 10:05:19;;;;;;;5.07;0.98;;;;;;;;;;4973649;28;20102;-46
2021/05/26 10:07:50;;;;;;;0.50;0.50;;;;;;;;;;4980220;28;20073;-46
2021/05/26 10:10:16;;;;;;;4.43;0.90;;;;;;;;;;4991814;28;20085;-46
2021/05/26 10:12:42;;;;;;;6.20;1.13;;;;;;;;;;4992240;28;20061;-46
2021/05/26 10:15:09;;;;;;;5.38;1.15;;;;;;;;;;4991945;28;20394;-46
2021/05/26 10:17:41;;;;;;;5.30;1.00;;;;;;;;;;4977993;28;20042;-46
2021/05/26 10:20:09;;;;;;;4.45;1.40;;;;;;;;;;4972316;28;20102;-46
2021/05/26 10:22:36;;;;;;;3.35;1.10;;;;;;;;;;4989335;28;20030;-46
2021/05/26 10:25:04;;;;;;;8.07;1.20;;;;;;;;;;4992021;28;20026;-46
2021/05/26 10:27:33;;;;;;;2.90;1.42;;;;;;;;;;4983926;28;20096;-45
2021/05/26 10:29:59;;;;;;;2.47;1.10;;;;;;;;;;4972312;28;20030;-46
2021/05/26 10:32:28;;;;;;;3.60;1.60;;;;;;;;;;4971963;28;20042;-45
2021/05/26 10:34:54;;;;;;;5.80;1.02;;;;;;;;;;4972330;28;20356;-46
2021/05/26 10:37:32;;;;;;;5.20;1.30;;;;;;;;;;4979071;28;20027;-46
2021/05/26 10:39:58;;;;;;;7.32;1.50;;;;;;;;;;4972313;28;20022;-45
2021/05/26 10:42:34;;;;;;;6.45;1.05;;;;;;;;;;4986898;28;20030;-45
2021/05/26 10:45:05;;;;;;;4.65;0.98;;;;;;;;;;4991700;28;20018;-46
2021/05/26 10:47:38;;;;;;;3.38;1.63;;;;;;;;;;4991503;28;20035;-46
2021/05/26 10:50:04;;;;;;;4.18;1.38;;;;;;;;;;4989092;28;20054;-45
2021/05/26 10:52:50;;;;;;;1.85;1.17;;;;;;;;;;4973567;28;20507;-46
2021/05/26 10:55:35;;;;;;;2.70;1.30;;;;;;;;;;4971955;28;20484;-46
2021/05/26 10:58:31;;;;;;;3.22;1.58;;;;;;;;;;4980225;28;20041;-46
2021/05/26 11:00:57;;;;;;;2.38;1.33;;;;;;;;;;4989309;28;20046;-45
2021/05/26 11:03:29;;;;;;;3.13;1.55;;;;;;;;;;4990912;28;20042;-46
2021/05/26 11:05:56;;;;;;;5.82;1.55;;;;;;;;;;4991548;28;20029;-46
2021/05/26 11:08:53;;;;;;;6.82;1.60;;;;;;;;;;4990929;28;20031;-47
2021/05/26 11:11:19;;;;;;;1.67;0.90;;;;;;;;;;4972733;28;20089;-45
2021/05/26 11:14:04;;;;;;;4.43;1.25;;;;;;;;;;4971676;28;20130;-45
2021/05/26 11:16:36;;;;;;;4.38;1.33;;;;;;;;;;4981531;28;20088;-46
2021/05/26 11:19:10;;;;;;;10.93;1.60;;;;;;;;;;4990410;28;20027;-46
2021/05/26 11:21:36;;;;;;;3.92;1.42;;;;;;;;;;4971248;28;20046;-45
2021/05/26 11:24:02;;;;;;;4.43;1.27;;;;;;;;;;4971851;28;20563;-45
2021/05/26 11:26:35;;;;;;;6.15;1.50;;;;;;;;;;4971956;28;20114;-45
2021/05/26 11:29:02;;;;;;;5.18;1.60;;;;;;;;;;4984885;28;20085;-46
2021/05/26 11:31:28;;;;;;;2.08;0.90;;;;;;;;;;4980084;28;20035;-45
2021/05/26 11:33:55;;;;;;;3.22;1.45;;;;;;;;;;4984996;28;20042;-45
2021/05/26 11:36:39;;;;;;;3.33;1.20;;;;;;;;;;4991675;28;20044;-46
2021/05/26 11:39:17;;;;;;;3.58;1.40;;;;;;;;;;4980225;28;20436;-47
2021/05/26 11:41:43;;;;;;;1.75;1.20;;;;;;;;;;4975445;28;20399;-46
2021/05/26 11:44:10;;;;;;;1.23;0.60;;;;;;;;;;4980777;28;20113;-46
2021/05/26 11:46:36;;;;;;;0.63;0.63;;;;;;;;;;4994671;28;20043;-46
2021/05/26 11:49:14;;;;;;;1.05;0.60;;;;;;;;;;4994884;28;20073;-45
2021/05/26 11:51:40;;;;;;;6.13;0.80;;;;;;;;;;4989520;28;20031;-46
2021/05/26 11:54:06;;;;;;;8.82;1.25;;;;;;;;;;4975049;28;20034;-45
2021/05/26 11:56:33;;;;;;;1.38;0.60;;;;;;;;;;4974984;28;20023;-45
2021/05/26 11:58:59;;;;;;;1.67;0.80;;;;;;;;;;4975225;28;20023;-48
2021/05/26 12:01:32;;;;;;;0.88;0.60;;;;;;;;;;4974230;28;20069;-46
2021/05/26 12:03:59;;;;;;;2.72;1.10;;;;;;;;;;4975925;28;20031;-47
2021/05/26 12:06:25;;;;;;;1.10;0.88;;;;;;;;;;4988232;28;20032;-46
2021/05/26 12:08:53;;;;;;;0.45;0.45;;;;;;;;;;4994199;28;20105;-47
2021/05/26 12:11:22;;;;;;;3.20;0.80;;;;;;;;;;4993663;28;20045;-47
2021/05/26 12:13:48;;;;;;;3.65;0.98;;;;;;;;;;4979092;28;20380;-46
2021/05/26 12:16:15;;;;;;;1.13;0.75;;;;;;;;;;4974884;28;20019;-45
2021/05/26 12:18:49;;;;;;;4.90;1.20;;;;;;;;;;4974673;28;20351;-45
2021/05/26 12:21:15;;;;;;;2.03;0.80;;;;;;;;;;4973814;28;20030;-46
2021/05/26 12:23:47;;;;;;;3.28;1.05;;;;;;;;;;4975485;28;20026;-46
2021/05/26 12:26:32;;;;;;;0.82;0.63;;;;;;;;;;4974907;28;20035;-46
2021/05/26 12:29:02;;;;;;;3.33;0.65;;;;;;;;;;4986063;28;20037;-46
2021/05/26 12:31:29;;;;;;;5.72;1.15;;;;;;;;;;4993030;28;20038;-46
2021/05/26 12:33:55;;;;;;;1.88;0.73;;;;;;;;;;4992008;28;20073;-46
2021/05/26 12:36:24;;;;;;;4.95;0.82;;;;;;;;;;4993778;28;20177;-46
2021/05/26 12:38:57;;;;;;;2.35;0.90;;;;;;;;;;4993080;28;20080;-45
2021/05/26 12:41:36;;;;;;;1.38;0.93;;;;;;;;;;4977081;28;20165;-45
2021/05/26 12:44:09;;;;;;;1.50;1.00;;;;;;;;;;4992088;28;20345;-46
2021/05/26 12:46:34;;;;;;;2.15;0.85;;;;;;;;;;4974246;28;20081;-46
2021/05/26 12:49:01;;;;;;;0.40;0.40;;;;;;;;;;4973950;28;20031;-46
2021/05/26 12:51:27;;;;;;;1.10;1.05;;;;;;;;;;4973272;28;20134;-45
2021/05/26 12:53:56;;;;;;;2.13;1.20;;;;;;;;;;4974366;28;20039;-46
2021/05/26 12:56:23;;;;;;;1.48;0.55;;;;;;;;;;4989399;28;20038;-45
2021/05/26 12:58:49;;;;;;;0.55;0.55;;;;;;;;;;4993097;28;20072;-46
2021/05/26 13:01:15;;;;;;;2.90;1.17;;;;;;;;;;4992576;28;20113;-46
2021/05/26 13:03:41;;;;;;;2.28;0.68;;;;;;;;;;4993072;28;20101;-45
2021/05/26 13:06:14;;;;;;;2.63;1.10;;;;;;;;;;4991842;28;20440;-46
2021/05/26 13:08:55;;;;;;;1.30;0.70;;;;;;;;;;4992789;28;20060;-46
2021/05/26 13:11:38;;;;;;;5.55;0.95;;;;;;;;;;4992701;28;20383;-46
2021/05/26 13:14:04;;;;;;;2.67;0.88;;;;;;;;;;4985814;28;20449;-46
2021/05/26 13:16:30;;;;;;;5.00;1.08;;;;;;;;;;4981057;28;20026;-48
2021/05/26 13:18:56;;;;;;;2.83;1.30;;;;;;;;;;4992592;28;20037;-46
2021/05/26 13:21:22;;;;;;;7.40;1.00;;;;;;;;;;4992344;28;20110;-46
2021/05/26 13:23:48;;;;;;;2.55;1.30;;;;;;;;;;4992315;28;20121;-46
2021/05/26 13:26:14;;;;;;;1.33;0.82;;;;;;;;;;4984349;28;20037;-46
2021/05/26 13:28:40;;;;;;;0.82;0.82;;;;;;;;;;4978476;28;20039;-46
2021/05/26 13:31:06;;;;;;;0.70;0.70;;;;;;;;;;4977177;28;20122;-46
2021/05/26 13:33:33;;;;;;;0.80;0.63;;;;;;;;;;4973598;28;20034;-46
2021/05/26 13:35:59;;;;;;;3.63;0.70;;;;;;;;;;4973790;28;20019;-46
2021/05/26 13:38:25;;;;;;;2.33;0.80;;;;;;;;;;4976269;28;20130;-47
2021/05/26 13:40:52;;;;;;;0.80;0.80;;;;;;;;;;4973789;28;20259;-46
2021/05/26 13:43:18;;;;;;;0.70;0.70;;;;;;;;;;4992544;28;20352;-47
2021/05/26 13:45:44;;;;;;;0.93;0.68;;;;;;;;;;4992340;28;20356;-46
2021/05/26 13:48:11;;;;;;;3.50;0.85;;;;;;;;;;4990017;28;20038;-46
2021/05/26 13:50:39;;;;;;;0.88;0.52;;;;;;;;;;4990172;28;20065;-46
2021/05/26 13:53:08;;;;;;;3.22;0.90;;;;;;;;;;4991681;28;20027;-47
2021/05/26 13:55:34;;;;;;;0.93;0.73;;;;;;;;;;4992075;28;20027;-46
2021/05/26 13:58:01;;;;;;;0.85;0.70;;;;;;;;;;4991592;28;20521;-46
2021/05/26 14:00:28;;;;;;;1.65;0.70;;;;;;;;;;4972109;28;20035;-46
2021/05/26 14:02:54;;;;;;;3.10;0.50;;;;;;;;;;4973357;28;20026;-46
2021/05/26 14:05:21;;;;;;;0.93;0.63;;;;;;;;;;4975262;28;20022;-46
2021/05/26 14:07:48;;;;;;;1.98;1.05;;;;;;;;;;4984242;28;20109;-46
2021/05/26 14:10:15;;;;;;;1.30;1.15;;;;;;;;;;4987211;28;20037;-46
2021/05/26 14:12:41;;;;;;;2.67;1.30;;;;;;;;;;4992202;28;20050;-45
2021/05/26 14:15:07;;;;;;;0.98;0.85;;;;;;;;;;4990278;28;20467;-46
2021/05/26 14:17:33;;;;;;;0.82;0.70;;;;;;;;;;4990736;28;20045;-46
2021/05/26 14:19:59;;;;;;;0.60;0.57;;;;;;;;;;4990254;28;20028;-46
2021/05/26 14:22:28;;;;;;;1.80;0.93;;;;;;;;;;4990643;28;20034;-46
2021/05/26 14:24:54;;;;;;;2.63;0.70;;;;;;;;;;4991217;28;20034;-46
2021/05/26 14:27:20;;;;;;;1.83;1.20;;;;;;;;;;4990375;28;20038;-46
2021/05/26 14:29:46;;;;;;;1.55;0.90;;;;;;;;;;4990859;28;20467;-46
2021/05/26 14:32:12;;;;;;;1.40;0.77;;;;;;;;;;4973049;28;20053;-46
2021/05/26 14:34:40;;;;;;;5.60;0.98;;;;;;;;;;4972398;28;20019;-46
2021/05/26 14:37:18;;;;;;;0.40;0.40;;;;;;;;;;4978585;28;20100;-46
2021/05/26 14:39:48;;;;;;;4.50;1.00;;;;;;;;;;4991147;28;20031;-46
2021/05/26 14:42:15;;;;;;;1.48;0.60;;;;;;;;;;4977555;28;20073;-46
2021/05/26 14:44:41;;;;;;;0.52;0.52;;;;;;;;;;4972575;28;20042;-46
2021/05/26 14:47:07;;;;;;;0.98;0.95;;;;;;;;;;4972391;28;20035;-47
2021/05/26 14:49:33;;;;;;;2.63;0.90;;;;;;;;;;4972307;28;20410;-47